Killingworth, CT

12:37 PM EST on February 14, 2016 (GMT -0500)
St. Lawrence Church Neighborhood | | Change Station
CLOSE
Current Station
Personal Weather Station
Location: Killingworth, CT
Elevation: 465 ft
Nearby Weather Stations

Elev 465 ft 41.36 °N, 72.57 °W | Updated 0 second ago

Clear
Clear
4.9 °F
Feels Like -14 °F
N
16.7
Wind Variable Wind from NW
Gusts 16.7 mph

Today
High -- | Low -- °F
--% Chance of Precip.
Yesterday
High -- | Low -- °F
Precip. -- in
Pressure 30.41 in
Visibility 10.0 miles
Clouds Clear
Windchill -14 °F
Dew Point -20 °F
Humidity 23%
Rainfall 0.00 in
Snow Depth Not available.
6:47 AM 5:22 PM
Waxing Crescent, 43% visible
METAR KSNC 141715Z AUTO 35014G20KT 10SM CLR M15/M28 A3041 RMK AO2
Pressure 30.41 in
Visibility 10.0 miles
Clouds Clear
Windchill -14 °F
Dew Point -20 °F
Humidity 23%
Rainfall 0.00 in
Snow Depth Not available.
6:47 AM 5:22 PM
Waxing Crescent, 43% visible
METAR KSNC 141715Z AUTO 35014G20KT 10SM CLR M15/M28 A3041 RMK AO2

10-Day Weather Forecast

Almanac

Astronomy

Feb. 14, 2016 Rise Set
Actual Time
Civil Twilight
Nautical Twilight
Astronomical Twilight
Moon
Length of Visible Light
Length of Day
Tomorrow will be .
, % of the Moon is Illuminated

Today's Extremes

State Highs State Lows

Community

WunderPhotos

Upload Photos

1,892,859 photos uploaded!

WunderBlog® & News

Nearby

Air Quality

  Air Quality AQ Index Pollutant
Not available.

Snow Depth

Station Depth Elevation

Earthquake Activity

City Distance Mag. Time & Date
Minimum magnitude displayed is 2.5.

Coastal Water Temperatures

Place Temperature

Stations

Nearby Weather Stations

Station Location Temp. Windchill Dew Point Humidity Wind Precip. Elev Updated Type
                   

Watches & Warnings

There are currently no watches in effect.